createdAt,value
2022-11-25T00:01:34.373Z,8.25
2022-11-25T00:04:01.642Z,7.55
2022-11-25T00:06:33.809Z,19.40
2022-11-25T00:09:07.911Z,7.47
2022-11-25T00:11:36.598Z,9.43
2022-11-25T00:14:03.626Z,7.95
2022-11-25T00:16:30.462Z,10.15
2022-11-25T00:18:58.233Z,13.90
2022-11-25T00:21:31.430Z,10.68
2022-11-25T00:24:00.404Z,8.70
2022-11-25T00:26:29.122Z,6.35
2022-11-25T00:28:58.590Z,10.23
2022-11-25T00:31:31.122Z,9.98
2022-11-25T00:33:58.570Z,6.65
2022-11-25T00:36:26.658Z,12.30
2022-11-25T00:39:06.661Z,7.03
2022-11-25T00:41:51.820Z,22.48
2022-11-25T00:44:39.620Z,13.73
2022-11-25T00:47:14.386Z,10.55
2022-11-25T00:49:43.701Z,10.45
2022-11-25T00:52:14.131Z,9.90
2022-11-25T00:54:40.886Z,7.40
2022-11-25T00:57:07.746Z,8.93
2022-11-25T00:59:34.440Z,10.45
2022-11-25T01:02:01.448Z,7.85
2022-11-25T01:04:28.217Z,9.75
2022-11-25T01:06:56.919Z,11.15
2022-11-25T01:09:24.253Z,10.45
2022-11-25T01:11:51.757Z,11.05
2022-11-25T01:14:19.578Z,9.52
2022-11-25T01:16:46.560Z,5.85
2022-11-25T01:19:13.489Z,12.32
2022-11-25T01:21:40.827Z,9.90
2022-11-25T01:24:08.153Z,12.05
2022-11-25T01:26:36.308Z,12.63
2022-11-25T01:29:06.172Z,8.65
2022-11-25T01:31:36.020Z,9.50
2022-11-25T01:34:25.661Z,7.90
2022-11-25T01:36:52.350Z,9.70
2022-11-25T01:39:30.141Z,6.78
2022-11-25T01:41:59.317Z,10.95
2022-11-25T01:44:30.836Z,8.52
2022-11-25T01:47:13.125Z,10.65
2022-11-25T01:50:04.137Z,9.63
2022-11-25T01:52:41.726Z,14.52
2022-11-25T01:55:19.519Z,8.18
2022-11-25T01:57:50.740Z,8.07
2022-11-25T02:00:18.373Z,12.63
2022-11-25T02:02:46.805Z,7.32
2022-11-25T02:05:17.972Z,14.80
2022-11-25T02:07:48.472Z,10.07
2022-11-25T02:10:21.418Z,9.95
2022-11-25T02:12:48.753Z,9.95
2022-11-25T02:15:16.394Z,9.75
2022-11-25T02:17:44.337Z,11.95
2022-11-25T02:20:12.610Z,10.35
2022-11-25T02:23:07.785Z,10.40
2022-11-25T02:25:37.090Z,11.35
2022-11-25T02:28:25.191Z,14.70
2022-11-25T02:30:52.099Z,9.82
2022-11-25T02:33:20.523Z,11.90
2022-11-25T02:35:57.340Z,7.30
2022-11-25T02:38:32.825Z,9.05
2022-11-25T02:41:15.097Z,6.95
2022-11-25T02:43:41.993Z,8.48
2022-11-25T02:46:20.382Z,10.63
2022-11-25T02:51:36.925Z,12.70
2022-11-25T02:54:03.967Z,10.02
2022-11-25T02:56:33.784Z,11.18
2022-11-25T02:59:01.395Z,12.75
2022-11-25T03:01:29.889Z,20.88
2022-11-25T03:03:57.040Z,10.18
2022-11-25T03:06:24.372Z,11.25
2022-11-25T03:08:51.199Z,10.50
2022-11-25T03:11:18.003Z,14.57
2022-11-25T03:13:44.927Z,15.15
2022-11-25T03:16:11.849Z,11.15
2022-11-25T03:18:38.782Z,11.20
2022-11-25T03:21:05.789Z,14.68
2022-11-25T03:23:32.565Z,10.75
2022-11-25T03:25:59.305Z,11.88
2022-11-25T03:28:26.107Z,8.75
2022-11-25T03:30:52.856Z,11.52
2022-11-25T03:33:19.711Z,10.00
2022-11-25T03:35:48.392Z,14.68
2022-11-25T03:38:15.218Z,11.68
2022-11-25T03:40:41.975Z,11.32
2022-11-25T03:43:08.713Z,13.80
2022-11-25T03:45:35.413Z,15.55
2022-11-25T03:48:02.147Z,21.83
2022-11-25T03:50:28.914Z,12.27
2022-11-25T03:52:55.588Z,11.60
2022-11-25T03:55:22.324Z,10.23
2022-11-25T03:57:49.168Z,11.77
2022-11-25T04:00:16.034Z,15.63
2022-11-25T04:02:42.860Z,8.15
2022-11-25T04:05:10.107Z,14.15
2022-11-25T04:07:37.009Z,9.52
2022-11-25T04:10:04.165Z,9.45
2022-11-25T04:12:49.017Z,12.05
2022-11-25T04:15:17.302Z,10.75
2022-11-25T04:17:44.256Z,11.38
2022-11-25T04:20:12.413Z,15.77
2022-11-25T04:22:39.097Z,12.80
2022-11-25T04:25:06.387Z,15.80
2022-11-25T04:27:33.162Z,17.67
2022-11-25T04:29:59.907Z,7.68
2022-11-25T04:32:27.471Z,14.70
2022-11-25T04:34:54.368Z,12.68
2022-11-25T04:37:21.652Z,16.67
2022-11-25T04:39:48.616Z,20.10
2022-11-25T04:42:34.433Z,7.70
2022-11-25T04:47:51.863Z,19.30
2022-11-25T04:50:21.422Z,13.13
2022-11-25T04:52:48.169Z,18.83
2022-11-25T04:55:15.129Z,31.67
2022-11-25T04:57:41.902Z,18.20
2022-11-25T05:00:09.973Z,16.98
2022-11-25T05:02:37.020Z,17.05
2022-11-25T05:05:04.233Z,17.48
2022-11-25T05:07:31.005Z,12.25
2022-11-25T05:09:57.856Z,13.23
2022-11-25T05:12:27.533Z,14.13
2022-11-25T05:14:54.301Z,21.25
2022-11-25T05:17:24.133Z,18.63
2022-11-25T05:19:51.936Z,16.90
2022-11-25T05:22:21.233Z,15.60
2022-11-25T05:24:48.355Z,18.20
2022-11-25T05:27:15.936Z,12.15
2022-11-25T05:29:42.893Z,15.77
2022-11-25T05:32:10.126Z,16.27
2022-11-25T05:34:37.261Z,18.70
2022-11-25T05:37:04.880Z,13.02
2022-11-25T05:39:31.876Z,16.50
2022-11-25T05:41:58.798Z,24.35
2022-11-25T05:44:26.121Z,20.83
2022-11-25T05:46:53.239Z,16.45
2022-11-25T05:49:20.940Z,15.50
2022-11-25T05:51:48.374Z,24.50
2022-11-25T05:54:15.153Z,33.53
2022-11-25T05:56:41.990Z,24.42
2022-11-25T05:59:08.782Z,20.85
2022-11-25T06:01:35.506Z,28.20
2022-11-25T06:04:04.051Z,33.28
2022-11-25T06:06:31.157Z,16.98
2022-11-25T06:08:58.019Z,21.13
2022-11-25T06:11:25.634Z,19.08
2022-11-25T06:13:52.551Z,17.50
2022-11-25T06:16:23.074Z,20.13
2022-11-25T06:18:50.109Z,20.95
2022-11-25T06:21:17.309Z,17.48
2022-11-25T06:23:46.196Z,16.13
2022-11-25T06:26:23.006Z,16.67
2022-11-25T06:28:54.043Z,19.23
2022-11-25T06:31:23.957Z,22.45
2022-11-25T06:33:52.099Z,11.00
2022-11-25T06:36:20.781Z,18.88
2022-11-25T06:38:52.933Z,23.98
2022-11-25T06:41:20.674Z,17.25
2022-11-25T06:43:47.397Z,27.75
2022-11-25T06:46:21.300Z,21.30
2022-11-25T06:48:51.119Z,23.27
2022-11-25T06:51:17.873Z,17.10
2022-11-25T06:53:44.899Z,22.50
2022-11-25T06:56:22.917Z,31.23
2022-11-25T06:58:50.421Z,16.60
2022-11-25T07:01:19.005Z,24.38
2022-11-25T07:03:47.183Z,17.70
2022-11-25T07:06:15.683Z,26.10
2022-11-25T07:08:43.058Z,26.45
2022-11-25T07:11:15.097Z,32.90
2022-11-25T07:13:41.887Z,17.58
2022-11-25T07:16:08.838Z,24.83
2022-11-25T07:18:37.343Z,17.45
2022-11-25T07:21:07.144Z,16.65
2022-11-25T07:23:35.241Z,40.28
2022-11-25T07:26:11.057Z,20.67
2022-11-25T07:28:39.354Z,17.80
2022-11-25T07:31:31.328Z,37.25
2022-11-25T07:34:05.539Z,18.85
2022-11-25T07:36:34.088Z,25.20
2022-11-25T07:39:03.948Z,37.25
2022-11-25T07:41:31.295Z,28.88
2022-11-25T07:44:05.384Z,17.27
2022-11-25T07:46:35.822Z,19.83
2022-11-25T07:49:05.605Z,20.85
2022-11-25T07:51:41.300Z,23.38
2022-11-25T07:54:10.836Z,25.98
2022-11-25T07:56:39.784Z,27.55
2022-11-25T07:59:08.426Z,22.67
2022-11-25T08:01:35.511Z,19.55
2022-11-25T08:04:02.528Z,25.77
2022-11-25T08:06:29.926Z,22.17
2022-11-25T08:08:58.200Z,30.00
2022-11-25T08:11:27.584Z,24.40
2022-11-25T08:13:55.641Z,21.85
2022-11-25T08:16:24.843Z,27.88
2022-11-25T08:18:51.703Z,33.90
2022-11-25T08:21:19.336Z,31.30
2022-11-25T08:23:49.693Z,20.48
2022-11-25T08:26:26.230Z,30.70
2022-11-25T08:28:57.714Z,28.48
2022-11-25T08:31:27.360Z,45.13
2022-11-25T08:33:55.353Z,34.70
2022-11-25T08:36:23.673Z,31.63
2022-11-25T08:38:53.870Z,29.17
2022-11-25T08:41:24.387Z,44.58
2022-11-25T08:43:51.409Z,30.80
2022-11-25T08:46:21.664Z,48.33
2022-11-25T08:48:48.590Z,18.80
2022-11-25T08:51:18.561Z,19.75
2022-11-25T08:53:46.429Z,44.67
2022-11-25T08:56:14.803Z,25.95
2022-11-25T08:58:42.789Z,46.65
2022-11-25T09:01:10.750Z,36.20
2022-11-25T09:03:40.812Z,44.50
2022-11-25T09:06:08.944Z,46.55
2022-11-25T09:08:36.507Z,52.25
2022-11-25T09:11:03.723Z,51.88
2022-11-25T09:13:30.687Z,34.95
2022-11-25T09:15:58.268Z,24.70
2022-11-25T09:18:30.199Z,25.38
2022-11-25T09:20:58.631Z,31.60
2022-11-25T09:23:26.336Z,29.27
2022-11-25T09:25:57.670Z,27.33
2022-11-25T09:28:25.943Z,22.13
2022-11-25T09:30:53.090Z,24.15
2022-11-25T09:33:20.404Z,21.90
2022-11-25T09:35:48.583Z,21.27
2022-11-25T09:38:15.291Z,24.83
2022-11-25T09:40:54.058Z,27.30
2022-11-25T09:44:18.992Z,22.40
2022-11-25T09:47:19.441Z,19.83
2022-11-25T09:50:12.408Z,25.05
2022-11-25T09:52:57.071Z,27.58
2022-11-25T09:55:25.937Z,19.70
2022-11-25T09:58:20.079Z,22.90
2022-11-25T10:00:49.174Z,28.30
2022-11-25T10:03:18.725Z,31.55
2022-11-25T10:05:55.113Z,28.15
2022-11-25T10:08:27.184Z,24.48
2022-11-25T10:11:13.822Z,30.27
2022-11-25T10:14:12.513Z,31.85
2022-11-25T10:16:52.240Z,21.90
2022-11-25T10:19:39.849Z,24.83
2022-11-25T10:22:28.169Z,19.02
2022-11-25T10:24:59.193Z,53.50
2022-11-25T10:27:41.595Z,36.33
2022-11-25T10:30:32.019Z,29.00
2022-11-25T10:33:25.248Z,26.53
2022-11-25T10:36:08.998Z,26.07
2022-11-25T10:38:49.958Z,18.03
2022-11-25T10:41:21.194Z,34.33
2022-11-25T10:43:48.384Z,26.00
2022-11-25T10:46:15.183Z,20.70
2022-11-25T10:48:54.510Z,17.20
2022-11-25T10:51:42.064Z,20.30
2022-11-25T10:54:09.452Z,18.70
2022-11-25T10:56:51.961Z,19.10
2022-11-25T10:59:29.670Z,24.87
2022-11-25T11:02:17.454Z,29.43
2022-11-25T11:05:01.806Z,25.50
2022-11-25T11:07:34.324Z,22.30
2022-11-25T11:10:21.846Z,19.90
2022-11-25T11:12:54.913Z,19.53
2022-11-25T11:15:33.301Z,16.27
2022-11-25T11:18:22.131Z,22.60
2022-11-25T11:20:52.111Z,16.67
2022-11-25T11:23:19.446Z,17.00
2022-11-25T11:25:57.747Z,21.40
2022-11-25T11:28:36.852Z,14.80
2022-11-25T11:31:25.120Z,20.53
2022-11-25T11:34:14.935Z,16.97
2022-11-25T11:37:03.151Z,13.77
2022-11-25T11:39:38.685Z,11.33
2022-11-25T11:42:23.759Z,11.73
2022-11-25T11:45:02.740Z,16.40
2022-11-25T11:48:06.443Z,12.00
2022-11-25T11:50:41.099Z,16.93
2022-11-25T11:53:30.883Z,16.90
2022-11-25T11:59:32.362Z,20.40
2022-11-25T12:02:20.984Z,15.93
2022-11-25T12:05:10.890Z,16.13
2022-11-25T12:08:03.236Z,26.27
2022-11-25T12:10:39.007Z,20.67
2022-11-25T12:13:15.045Z,18.93
2022-11-25T12:16:04.593Z,15.70
2022-11-25T12:18:46.348Z,18.50
2022-11-25T12:21:38.682Z,17.10
2022-11-25T12:24:32.739Z,15.70
2022-11-25T12:27:12.049Z,14.00
2022-11-25T12:29:41.828Z,17.27
2022-11-25T12:32:36.482Z,18.97
2022-11-25T12:35:11.968Z,15.00
2022-11-25T12:37:52.699Z,16.77
2022-11-25T12:40:45.577Z,16.67
2022-11-25T12:43:21.377Z,25.00
2022-11-25T12:45:58.966Z,18.20
2022-11-25T12:48:25.868Z,20.67
2022-11-25T12:51:16.602Z,20.50
2022-11-25T12:53:58.501Z,22.87
2022-11-25T12:56:43.927Z,22.83
2022-11-25T12:59:35.905Z,20.17
2022-11-25T13:02:31.340Z,20.00
2022-11-25T13:05:39.616Z,19.13
2022-11-25T13:08:11.133Z,11.23
2022-11-25T13:10:52.424Z,11.43
2022-11-25T13:14:11.884Z,8.40
2022-11-25T13:16:39.833Z,7.53
2022-11-25T13:19:12.291Z,10.83
2022-11-25T13:21:59.185Z,4.77
2022-11-25T13:24:48.989Z,6.77
2022-11-25T13:27:31.077Z,12.63
2022-11-25T13:29:59.188Z,5.07
2022-11-25T13:32:37.819Z,4.80
2022-11-25T13:35:24.531Z,4.70
2022-11-25T13:37:51.981Z,3.20
2022-11-25T13:40:40.914Z,7.80
2022-11-25T13:43:21.499Z,5.23
2022-11-25T13:45:48.384Z,8.10
2022-11-25T13:48:30.466Z,4.60
2022-11-25T13:51:20.767Z,10.70
2022-11-25T13:54:04.782Z,11.60
2022-11-25T13:56:36.722Z,4.63
2022-11-25T13:59:13.908Z,10.20
2022-11-25T14:01:52.734Z,13.90
2022-11-25T14:04:35.996Z,9.50
2022-11-25T14:07:20.083Z,14.93
2022-11-25T14:10:02.682Z,14.33
2022-11-25T14:13:02.826Z,13.60
2022-11-25T14:15:44.434Z,13.67
2022-11-25T14:18:16.969Z,10.63
2022-11-25T14:20:54.721Z,11.93
2022-11-25T14:23:42.861Z,6.60
2022-11-25T14:26:34.097Z,6.47
2022-11-25T14:29:06.354Z,7.83
2022-11-25T14:31:39.765Z,6.93
2022-11-25T14:34:36.738Z,4.27
2022-11-25T14:37:46.789Z,8.17
2022-11-25T14:40:19.346Z,9.17
2022-11-25T14:42:51.746Z,10.40
2022-11-25T14:45:39.015Z,13.07
2022-11-25T14:48:21.894Z,11.80
2022-11-25T14:51:04.230Z,12.13
2022-11-25T14:53:31.265Z,5.17
2022-11-25T14:56:00.742Z,5.97
2022-11-25T14:58:27.777Z,2.53
2022-11-25T15:01:16.605Z,4.90
2022-11-25T15:03:46.000Z,15.27
2022-11-25T15:06:13.882Z,6.33
2022-11-25T15:08:42.835Z,5.43
2022-11-25T15:11:22.599Z,3.93
2022-11-25T15:14:03.333Z,8.10
2022-11-25T15:16:36.944Z,2.53
2022-11-25T15:19:06.175Z,8.87
2022-11-25T15:22:00.007Z,10.10
2022-11-25T15:24:29.319Z,5.43
2022-11-25T15:26:59.855Z,12.20
2022-11-25T15:29:29.105Z,9.73
2022-11-25T15:31:59.879Z,10.13
2022-11-25T15:34:29.513Z,7.60
2022-11-25T15:36:56.292Z,7.67
2022-11-25T15:39:25.567Z,7.33
2022-11-25T15:41:55.280Z,8.30
2022-11-25T15:44:26.410Z,7.47
2022-11-25T15:47:05.881Z,11.00
2022-11-25T15:49:35.872Z,5.93
2022-11-25T15:52:17.263Z,5.80
2022-11-25T15:54:52.430Z,8.47
2022-11-25T15:57:28.299Z,10.20
2022-11-25T15:59:55.081Z,8.07
2022-11-25T16:02:40.082Z,9.50
2022-11-25T16:05:12.809Z,11.23
2022-11-25T16:07:50.113Z,7.80
2022-11-25T16:10:17.326Z,13.60
2022-11-25T16:12:44.049Z,10.20
2022-11-25T16:15:17.993Z,9.37
2022-11-25T16:17:44.939Z,8.10
2022-11-25T16:20:19.425Z,11.07
2022-11-25T16:22:47.101Z,13.10
2022-11-25T16:25:17.119Z,13.97
2022-11-25T16:27:45.047Z,10.93
2022-11-25T16:30:19.409Z,10.13
2022-11-25T16:32:46.236Z,10.97
2022-11-25T16:35:20.622Z,7.47
2022-11-25T16:37:49.377Z,10.43
2022-11-25T16:40:17.918Z,12.30
2022-11-25T16:42:48.756Z,14.00
2022-11-25T16:45:21.688Z,10.80
2022-11-25T16:47:48.425Z,10.33
2022-11-25T16:50:17.264Z,14.57
2022-11-25T16:52:44.061Z,19.10
2022-11-25T16:55:11.255Z,22.57
2022-11-25T16:57:40.220Z,69.60
2022-11-25T17:00:12.627Z,77.80
2022-11-25T17:02:39.393Z,42.60
2022-11-25T17:05:21.184Z,29.33
2022-11-25T17:07:50.337Z,31.73
2022-11-25T17:10:18.083Z,19.93
2022-11-25T17:12:47.043Z,19.30
2022-11-25T17:15:17.726Z,23.83
2022-11-25T17:17:49.175Z,16.90
2022-11-25T17:20:18.321Z,22.67
2022-11-25T17:22:45.089Z,16.30
2022-11-25T17:25:13.230Z,15.70
2022-11-25T17:27:41.278Z,13.80
2022-11-25T17:30:17.474Z,10.40
2022-11-25T17:32:44.542Z,9.33
2022-11-25T17:35:19.440Z,13.27
2022-11-25T17:37:46.663Z,10.07
2022-11-25T17:40:14.245Z,17.07
2022-11-25T17:42:41.858Z,10.47
2022-11-25T17:45:17.346Z,13.73
2022-11-25T17:47:44.677Z,11.33
2022-11-25T17:50:25.682Z,8.03
2022-11-25T17:52:52.859Z,11.20
2022-11-25T17:55:21.613Z,15.57
2022-11-25T17:57:51.492Z,11.93
2022-11-25T18:00:21.345Z,16.97
2022-11-25T18:02:48.442Z,13.27
2022-11-25T18:05:23.694Z,9.13
2022-11-25T18:07:50.984Z,13.87
2022-11-25T18:10:21.157Z,14.57
2022-11-25T18:12:51.988Z,21.37
2022-11-25T18:15:22.571Z,28.67
2022-11-25T18:17:50.556Z,18.70
2022-11-25T18:20:25.605Z,20.63
2022-11-25T18:22:53.550Z,18.60
2022-11-25T18:25:23.448Z,16.10
2022-11-25T18:27:56.134Z,14.73
2022-11-25T18:30:30.696Z,15.07
2022-11-25T18:32:58.257Z,20.03
2022-11-25T18:35:35.729Z,29.13
2022-11-25T18:38:03.893Z,22.23
2022-11-25T18:40:30.877Z,26.90
2022-11-25T18:43:00.771Z,19.60
2022-11-25T18:45:30.893Z,22.60
2022-11-25T18:47:57.730Z,19.23
2022-11-25T18:50:27.005Z,21.37
2022-11-25T18:52:54.020Z,24.97
2022-11-25T18:55:23.064Z,21.53
2022-11-25T18:57:51.702Z,29.40
2022-11-25T19:00:32.273Z,17.13
2022-11-25T19:03:00.484Z,18.17
2022-11-25T19:05:32.781Z,23.27
2022-11-25T19:07:59.685Z,15.07
2022-11-25T19:10:30.916Z,18.70
2022-11-25T19:13:01.630Z,15.53
2022-11-25T19:15:28.615Z,15.57
2022-11-25T19:18:01.278Z,20.00
2022-11-25T19:20:31.565Z,22.40
2022-11-25T19:23:01.066Z,19.90
2022-11-25T19:25:28.717Z,54.63
2022-11-25T19:27:59.284Z,60.03
2022-11-25T19:30:31.059Z,59.37
2022-11-25T19:33:00.320Z,52.50
2022-11-25T19:35:33.196Z,50.50
2022-11-25T19:37:59.935Z,39.43
2022-11-25T19:40:26.940Z,32.87
2022-11-25T19:42:53.629Z,36.83
2022-11-25T19:45:20.955Z,30.37
2022-11-25T19:47:50.515Z,22.03
2022-11-25T19:50:22.042Z,19.30
2022-11-25T19:52:49.969Z,19.95
2022-11-25T19:55:20.244Z,14.87
2022-11-25T19:57:48.371Z,18.03
2022-11-25T20:00:16.874Z,19.53
2022-11-25T20:02:45.223Z,15.60
2022-11-25T20:05:20.240Z,27.23
2022-11-25T20:07:47.434Z,22.33
2022-11-25T20:10:16.281Z,25.80
2022-11-25T20:12:43.135Z,19.83
2022-11-25T20:15:10.471Z,14.63
2022-11-25T20:17:39.767Z,17.10
2022-11-25T20:20:27.432Z,24.40
2022-11-25T20:22:58.505Z,18.47
2022-11-25T20:25:26.096Z,17.60
2022-11-25T20:27:52.958Z,12.70
2022-11-25T20:30:27.852Z,23.00
2022-11-25T20:32:55.298Z,22.33
2022-11-25T20:35:23.680Z,17.13
2022-11-25T20:38:00.702Z,15.17
2022-11-25T20:40:40.219Z,18.23
2022-11-25T20:43:31.909Z,22.07
2022-11-25T20:46:00.547Z,12.63
2022-11-25T20:48:28.775Z,13.20
2022-11-25T20:50:58.788Z,10.00
2022-11-25T20:53:27.952Z,14.60
2022-11-25T20:55:54.748Z,7.53
2022-11-25T20:58:22.724Z,12.33
2022-11-25T21:00:55.679Z,12.27
2022-11-25T21:03:24.609Z,8.40
2022-11-25T21:05:52.653Z,16.13
2022-11-25T21:08:29.364Z,10.00
2022-11-25T21:10:58.251Z,8.87
2022-11-25T21:13:29.866Z,11.07
2022-11-25T21:15:57.638Z,9.43
2022-11-25T21:18:25.346Z,13.30
2022-11-25T21:20:55.664Z,10.23
2022-11-25T21:23:29.391Z,7.00
2022-11-25T21:26:13.619Z,10.03
2022-11-25T21:28:44.057Z,16.53
2022-11-25T21:31:17.948Z,11.27
2022-11-25T21:33:46.286Z,11.57
2022-11-25T21:36:31.708Z,8.47
2022-11-25T21:39:14.270Z,10.07
2022-11-25T21:41:41.344Z,11.47
2022-11-25T21:44:08.215Z,11.23
2022-11-25T21:46:35.077Z,12.20
2022-11-25T21:49:01.925Z,7.97
2022-11-25T21:51:28.689Z,10.87
2022-11-25T21:53:55.512Z,11.63
2022-11-25T21:56:31.458Z,11.33
2022-11-25T21:58:59.782Z,7.90
2022-11-25T22:01:26.717Z,11.03
2022-11-25T22:03:53.757Z,8.40
2022-11-25T22:06:27.307Z,10.52
2022-11-25T22:08:57.971Z,16.53
2022-11-25T22:11:33.446Z,11.87
2022-11-25T22:14:04.677Z,17.20
2022-11-25T22:16:34.481Z,10.07
2022-11-25T22:19:01.268Z,14.70
2022-11-25T22:21:27.986Z,15.77
2022-11-25T22:23:54.882Z,10.23
2022-11-25T22:26:26.118Z,11.10
2022-11-25T22:28:53.845Z,8.83
2022-11-25T22:31:21.094Z,16.37
2022-11-25T22:33:49.010Z,13.87
2022-11-25T22:36:35.250Z,12.32
2022-11-25T22:39:15.934Z,11.07
2022-11-25T22:41:55.498Z,14.13
2022-11-25T22:44:35.624Z,9.63
2022-11-25T22:47:03.266Z,10.67
2022-11-25T22:49:42.220Z,9.07
2022-11-25T22:52:20.328Z,11.10
2022-11-25T22:54:47.370Z,13.37
2022-11-25T22:57:14.041Z,10.83
2022-11-25T22:59:40.776Z,19.47
2022-11-25T23:02:09.670Z,14.10
2022-11-25T23:04:36.907Z,13.60
2022-11-25T23:07:08.389Z,15.20
2022-11-25T23:09:35.153Z,11.70
2022-11-25T23:12:01.939Z,9.90
2022-11-25T23:14:28.710Z,14.50
2022-11-25T23:16:55.735Z,9.80
2022-11-25T23:19:22.563Z,11.00
2022-11-25T23:21:49.306Z,12.40
2022-11-25T23:24:17.325Z,17.43
2022-11-25T23:26:44.647Z,11.83
2022-11-25T23:29:11.493Z,11.33
2022-11-25T23:31:40.036Z,15.97
2022-11-25T23:34:08.189Z,11.60
2022-11-25T23:36:48.588Z,17.20
2022-11-25T23:39:21.899Z,26.43
2022-11-25T23:41:49.137Z,18.55
2022-11-25T23:44:26.133Z,14.60
2022-11-25T23:47:00.080Z,14.30
2022-11-25T23:49:26.877Z,14.10
2022-11-25T23:51:57.165Z,11.43
2022-11-25T23:54:31.070Z,20.60
2022-11-25T23:56:57.982Z,13.13
2022-11-25T23:59:29.682Z,11.50
